Terminal Aerodrome Forecast
Issued by NWS Bismarck, ND

Home | Current Version | Previous Version | Text Only | Print | Product List | Glossary Off
Versions: 1 2 3 4 5 6 7 8 9 10 11 12 13

000
FTUS43 KBIS 231633 AAA
TAFISN
TAF AMD
KISN 231633Z 2317/2412 30013G22KT P6SM SCT035
     FM232300 30017G26KT P6SM SCT050
     FM240300 31009KT P6SM SKC
     FM240700 28005KT P6SM SKC=

USA.gov is the U.S. government's official web portal to all federal, state and local government web resources and services.